sensor_id;sensor_type;location;lat;lon;timestamp;pressure;altitude;pressure_sealevel;temperature;humidity
6942;BME280;3510;43.200;27.920;2023-08-06T00:00:54;99871.50;;;28.70;77.76
6942;BME280;3510;43.200;27.920;2023-08-06T00:03:21;99866.34;;;28.58;78.04
6942;BME280;3510;43.200;27.920;2023-08-06T00:05:48;99851.69;;;28.57;78.02
6942;BME280;3510;43.200;27.920;2023-08-06T00:08:14;99838.66;;;28.76;77.13
6942;BME280;3510;43.200;27.920;2023-08-06T00:10:56;99828.38;;;28.59;77.50
6942;BME280;3510;43.200;27.920;2023-08-06T00:13:23;99839.63;;;28.59;77.25
6942;BME280;3510;43.200;27.920;2023-08-06T00:15:49;99830.06;;;28.70;76.29
6942;BME280;3510;43.200;27.920;2023-08-06T00:18:15;99831.75;;;28.75;76.19
6942;BME280;3510;43.200;27.920;2023-08-06T00:20:44;99818.84;;;28.62;76.16
6942;BME280;3510;43.200;27.920;2023-08-06T00:23:12;99829.28;;;28.53;76.53
6942;BME280;3510;43.200;27.920;2023-08-06T00:25:52;99823.13;;;28.69;76.00
6942;BME280;3510;43.200;27.920;2023-08-06T00:28:20;99825.78;;;28.57;76.77
6942;BME280;3510;43.200;27.920;2023-08-06T00:30:52;99813.66;;;28.65;77.04
6942;BME280;3510;43.200;27.920;2023-08-06T00:33:19;99807.66;;;28.60;77.12
6942;BME280;3510;43.200;27.920;2023-08-06T00:35:46;99807.69;;;28.56;77.09
6942;BME280;3510;43.200;27.920;2023-08-06T00:38:13;99801.66;;;28.52;76.80
6942;BME280;3510;43.200;27.920;2023-08-06T00:40:53;99798.16;;;28.61;76.99
6942;BME280;3510;43.200;27.920;2023-08-06T00:43:21;99816.31;;;28.55;77.14
6942;BME280;3510;43.200;27.920;2023-08-06T00:45:48;99815.44;;;28.57;76.87
6942;BME280;3510;43.200;27.920;2023-08-06T00:48:15;99813.72;;;28.59;77.13
6942;BME280;3510;43.200;27.920;2023-08-06T00:50:42;99819.69;;;28.72;76.70
6942;BME280;3510;43.200;27.920;2023-08-06T00:53:09;99815.44;;;28.60;76.87
6942;BME280;3510;43.200;27.920;2023-08-06T00:55:43;99815.25;;;28.85;76.34
6942;BME280;3510;43.200;27.920;2023-08-06T00:58:10;99817.88;;;28.83;76.23
6942;BME280;3510;43.200;27.920;2023-08-06T01:12:09;99805.81;;;28.82;75.12
6942;BME280;3510;43.200;27.920;2023-08-06T01:14:44;99804.84;;;28.97;74.75
6942;BME280;3510;43.200;27.920;2023-08-06T01:17:26;99799.66;;;28.94;74.66
6942;BME280;3510;43.200;27.920;2023-08-06T01:20:06;99791.09;;;28.86;74.75
6942;BME280;3510;43.200;27.920;2023-08-06T01:37:23;99758.38;;;28.69;76.05
6942;BME280;3510;43.200;27.920;2023-08-06T01:40:05;99755.00;;;28.58;76.76
6942;BME280;3510;43.200;27.920;2023-08-06T01:42:32;99747.16;;;28.72;76.71
6942;BME280;3510;43.200;27.920;2023-08-06T01:45:12;99746.41;;;28.56;77.72
6942;BME280;3510;43.200;27.920;2023-08-06T01:47:52;99730.91;;;28.50;77.88
6942;BME280;3510;43.200;27.920;2023-08-06T01:50:19;99730.88;;;28.53;77.77
6942;BME280;3510;43.200;27.920;2023-08-06T01:55:42;99727.47;;;28.48;77.54
6942;BME280;3510;43.200;27.920;2023-08-06T01:58:22;99729.13;;;28.57;76.97
6942;BME280;3510;43.200;27.920;2023-08-06T02:01:02;99736.91;;;28.54;77.01
6942;BME280;3510;43.200;27.920;2023-08-06T02:03:43;99729.25;;;28.38;77.41
6942;BME280;3510;43.200;27.920;2023-08-06T02:06:23;99722.31;;;28.48;76.93
6942;BME280;3510;43.200;27.920;2023-08-06T02:09:03;99724.00;;;28.48;76.65
6942;BME280;3510;43.200;27.920;2023-08-06T02:11:46;99717.06;;;28.54;76.45
6942;BME280;3510;43.200;27.920;2023-08-06T02:14:26;99711.78;;;28.69;76.04
6942;BME280;3510;43.200;27.920;2023-08-06T02:17:06;99719.53;;;28.69;75.61
6942;BME280;3510;43.200;27.920;2023-08-06T02:19:33;99710.78;;;28.84;75.06
6942;BME280;3510;43.200;27.920;2023-08-06T02:22:00;99713.38;;;28.89;74.84
6942;BME280;3510;43.200;27.920;2023-08-06T02:24:40;99711.72;;;28.79;75.47
6942;BME280;3510;43.200;27.920;2023-08-06T02:33:12;99692.84;;;28.58;76.02
6942;BME280;3510;43.200;27.920;2023-08-06T02:35:38;99690.28;;;28.57;76.35
6942;BME280;3510;43.200;27.920;2023-08-06T02:38:05;99686.00;;;28.54;76.95
6942;BME280;3510;43.200;27.920;2023-08-06T02:40:46;99686.00;;;28.51;77.37
6942;BME280;3510;43.200;27.920;2023-08-06T02:43:26;99686.97;;;28.41;77.40
6942;BME280;3510;43.200;27.920;2023-08-06T02:45:56;99681.66;;;28.59;77.11
6942;BME280;3510;43.200;27.920;2023-08-06T03:05:54;99713.78;;;28.23;76.90
6942;BME280;3510;43.200;27.920;2023-08-06T03:08:35;99715.66;;;27.96;77.26
6942;BME280;3510;43.200;27.920;2023-08-06T03:11:02;99715.44;;;28.41;75.66
6942;BME280;3510;43.200;27.920;2023-08-06T03:13:29;99721.44;;;28.46;74.95
6942;BME280;3510;43.200;27.920;2023-08-06T03:15:55;99719.72;;;28.36;74.90
6942;BME280;3510;43.200;27.920;2023-08-06T03:18:36;99719.63;;;28.60;74.34
6942;BME280;3510;43.200;27.920;2023-08-06T03:24:14;99728.72;;;29.10;72.91
6942;BME280;3510;43.200;27.920;2023-08-06T03:26:54;99730.88;;;28.53;73.36
6942;BME280;3510;43.200;27.920;2023-08-06T03:29:34;99730.88;;;28.56;73.62
6942;BME280;3510;43.200;27.920;2023-08-06T03:32:15;99728.41;;;28.30;74.00
6942;BME280;3510;43.200;27.920;2023-08-06T03:34:55;99736.31;;;28.07;75.28
6942;BME280;3510;43.200;27.920;2023-08-06T03:37:21;99732.91;;;27.93;75.66
6942;BME280;3510;43.200;27.920;2023-08-06T03:42:58;99732.59;;;28.56;73.52
6942;BME280;3510;43.200;27.920;2023-08-06T03:45:38;99733.56;;;28.41;73.05
6942;BME280;3510;43.200;27.920;2023-08-06T03:48:06;99747.38;;;28.32;73.25
6942;BME280;3510;43.200;27.920;2023-08-06T03:50:32;99748.47;;;27.78;76.33
6942;BME280;3510;43.200;27.920;2023-08-06T03:52:59;99736.44;;;27.40;78.16
6942;BME280;3510;43.200;27.920;2023-08-06T03:55:25;99733.91;;;27.26;78.92
6942;BME280;3510;43.200;27.920;2023-08-06T03:57:53;99725.25;;;27.50;78.07
6942;BME280;3510;43.200;27.920;2023-08-06T04:03:16;99725.22;;;27.78;77.04
6942;BME280;3510;43.200;27.920;2023-08-06T04:05:46;99722.56;;;27.93;76.65
6942;BME280;3510;43.200;27.920;2023-08-06T04:08:12;99724.28;;;27.88;76.74
6942;BME280;3510;43.200;27.920;2023-08-06T04:10:39;99712.22;;;27.90;75.76
6942;BME280;3510;43.200;27.920;2023-08-06T04:13:19;99708.66;;;28.12;75.96
6942;BME280;3510;43.200;27.920;2023-08-06T04:16:01;99710.16;;;28.53;73.36
6942;BME280;3510;43.200;27.920;2023-08-06T04:18:29;99708.09;;;29.00;71.90
6942;BME280;3510;43.200;27.920;2023-08-06T04:20:55;99710.47;;;29.24;70.44
6942;BME280;3510;43.200;27.920;2023-08-06T04:23:22;99705.97;;;29.40;68.64
6942;BME280;3510;43.200;27.920;2023-08-06T04:25:49;99713.34;;;29.81;67.72
6942;BME280;3510;43.200;27.920;2023-08-06T04:28:15;99711.16;;;30.17;66.75
6942;BME280;3510;43.200;27.920;2023-08-06T04:30:41;99704.22;;;30.18;66.38
6942;BME280;3510;43.200;27.920;2023-08-06T04:33:08;99707.88;;;30.65;65.11
6942;BME280;3510;43.200;27.920;2023-08-06T04:35:36;99701.31;;;30.96;63.95
6942;BME280;3510;43.200;27.920;2023-08-06T04:38:02;99702.25;;;30.92;63.29
6942;BME280;3510;43.200;27.920;2023-08-06T04:40:29;99711.56;;;30.50;63.82
6942;BME280;3510;43.200;27.920;2023-08-06T04:42:55;99703.03;;;30.40;64.03
6942;BME280;3510;43.200;27.920;2023-08-06T04:45:22;99700.59;;;30.29;64.83
6942;BME280;3510;43.200;27.920;2023-08-06T04:47:49;99693.97;;;30.07;65.73
6942;BME280;3510;43.200;27.920;2023-08-06T04:50:16;99683.72;;;30.58;64.12
6942;BME280;3510;43.200;27.920;2023-08-06T04:52:44;99672.72;;;30.96;62.48
6942;BME280;3510;43.200;27.920;2023-08-06T04:55:11;99672.97;;;31.29;62.09
6942;BME280;3510;43.200;27.920;2023-08-06T04:57:51;99662.34;;;31.43;61.71
6942;BME280;3510;43.200;27.920;2023-08-06T05:00:18;99666.28;;;31.62;60.54
6942;BME280;3510;43.200;27.920;2023-08-06T05:02:48;99672.53;;;31.97;59.67
6942;BME280;3510;43.200;27.920;2023-08-06T05:05:15;99669.53;;;31.73;59.89
6942;BME280;3510;43.200;27.920;2023-08-06T05:07:41;99665.94;;;31.37;61.05
6942;BME280;3510;43.200;27.920;2023-08-06T05:10:09;99664.66;;;31.12;61.86
6942;BME280;3510;43.200;27.920;2023-08-06T05:12:36;99653.41;;;31.09;62.57
6942;BME280;3510;43.200;27.920;2023-08-06T05:15:04;99656.13;;;30.52;64.95
6942;BME280;3510;43.200;27.920;2023-08-06T05:17:32;99660.25;;;30.05;66.44
6942;BME280;3510;43.200;27.920;2023-08-06T05:19:59;99623.97;;;30.58;64.73
6942;BME280;3510;43.200;27.920;2023-08-06T05:22:26;99644.91;;;31.01;64.15
6942;BME280;3510;43.200;27.920;2023-08-06T05:24:53;99633.09;;;31.31;63.21
6942;BME280;3510;43.200;27.920;2023-08-06T05:27:21;99667.03;;;31.69;62.06
6942;BME280;3510;43.200;27.920;2023-08-06T05:29:48;99654.53;;;31.85;60.86
6942;BME280;3510;43.200;27.920;2023-08-06T05:32:15;99667.38;;;32.33;59.55
6942;BME280;3510;43.200;27.920;2023-08-06T05:34:41;99667.72;;;32.17;59.75
6942;BME280;3510;43.200;27.920;2023-08-06T05:37:08;99619.94;;;31.39;61.54
6942;BME280;3510;43.200;27.920;2023-08-06T05:39:36;99646.59;;;31.50;61.55
6942;BME280;3510;43.200;27.920;2023-08-06T05:42:02;99667.03;;;31.24;63.23
6942;BME280;3510;43.200;27.920;2023-08-06T05:44:32;99652.16;;;31.74;62.56
6942;BME280;3510;43.200;27.920;2023-08-06T05:46:58;99650.41;;;31.76;61.36
6942;BME280;3510;43.200;27.920;2023-08-06T05:49:25;99639.38;;;31.65;61.80
6942;BME280;3510;43.200;27.920;2023-08-06T05:51:52;99640.84;;;31.33;62.63
6942;BME280;3510;43.200;27.920;2023-08-06T05:54:19;99627.94;;;31.72;61.79
6942;BME280;3510;43.200;27.920;2023-08-06T05:56:46;99634.78;;;31.76;61.33
6942;BME280;3510;43.200;27.920;2023-08-06T05:59:12;99646.13;;;32.14;61.04
6942;BME280;3510;43.200;27.920;2023-08-06T06:01:40;99644.03;;;31.91;61.14
6942;BME280;3510;43.200;27.920;2023-08-06T06:04:07;99613.13;;;31.75;60.90
6942;BME280;3510;43.200;27.920;2023-08-06T06:06:35;99637.97;;;31.90;60.40
6942;BME280;3510;43.200;27.920;2023-08-06T06:09:01;99638.72;;;31.95;60.42
6942;BME280;3510;43.200;27.920;2023-08-06T06:11:28;99647.16;;;32.07;60.25
6942;BME280;3510;43.200;27.920;2023-08-06T06:13:55;99648.78;;;32.11;59.74
6942;BME280;3510;43.200;27.920;2023-08-06T06:16:21;99630.38;;;31.79;60.54
6942;BME280;3510;43.200;27.920;2023-08-06T06:18:49;99641.91;;;32.08;59.56
6942;BME280;3510;43.200;27.920;2023-08-06T06:21:17;99651.78;;;32.31;59.14
6942;BME280;3510;43.200;27.920;2023-08-06T06:23:43;99642.09;;;32.36;59.41
6942;BME280;3510;43.200;27.920;2023-08-06T06:26:10;99655.06;;;32.39;58.57
6942;BME280;3510;43.200;27.920;2023-08-06T06:28:37;99648.59;;;32.20;59.34
6942;BME280;3510;43.200;27.920;2023-08-06T06:31:03;99656.16;;;32.31;58.53
6942;BME280;3510;43.200;27.920;2023-08-06T06:33:30;99650.00;;;32.33;58.17
6942;BME280;3510;43.200;27.920;2023-08-06T06:35:58;99650.81;;;32.72;57.64
6942;BME280;3510;43.200;27.920;2023-08-06T06:38:24;99644.75;;;32.72;57.60
6942;BME280;3510;43.200;27.920;2023-08-06T06:40:55;99653.34;;;32.74;57.55
6942;BME280;3510;43.200;27.920;2023-08-06T06:43:22;99658.97;;;32.59;57.66
6942;BME280;3510;43.200;27.920;2023-08-06T06:45:52;99627.63;;;32.62;57.78
6942;BME280;3510;43.200;27.920;2023-08-06T06:48:19;99655.81;;;32.46;58.13
6942;BME280;3510;43.200;27.920;2023-08-06T06:50:47;99512.94;;;31.56;58.51
6942;BME280;3510;43.200;27.920;2023-08-06T06:53:15;99649.56;;;32.87;57.60
6942;BME280;3510;43.200;27.920;2023-08-06T06:55:42;99646.78;;;32.59;58.34
6942;BME280;3510;43.200;27.920;2023-08-06T06:58:09;99638.09;;;32.94;57.10
6942;BME280;3510;43.200;27.920;2023-08-06T07:00:36;99648.47;;;32.97;56.96
6942;BME280;3510;43.200;27.920;2023-08-06T07:03:03;99612.44;;;32.45;57.67
6942;BME280;3510;43.200;27.920;2023-08-06T07:05:31;99640.44;;;32.69;57.59
6942;BME280;3510;43.200;27.920;2023-08-06T07:07:57;99629.44;;;32.94;56.89
6942;BME280;3510;43.200;27.920;2023-08-06T07:10:26;99655.78;;;32.82;57.14
6942;BME280;3510;43.200;27.920;2023-08-06T07:12:52;99609.03;;;32.75;56.04
6942;BME280;3510;43.200;27.920;2023-08-06T07:15:19;99650.09;;;33.00;56.38
6942;BME280;3510;43.200;27.920;2023-08-06T07:17:46;99649.53;;;33.21;55.98
6942;BME280;3510;43.200;27.920;2023-08-06T07:20:13;99649.88;;;32.75;56.95
6942;BME280;3510;43.200;27.920;2023-08-06T07:22:40;99642.09;;;32.36;58.35
6942;BME280;3510;43.200;27.920;2023-08-06T07:25:08;99623.03;;;33.06;56.15
6942;BME280;3510;43.200;27.920;2023-08-06T07:27:36;99641.41;;;33.32;56.27
6942;BME280;3510;43.200;27.920;2023-08-06T07:30:06;99651.59;;;32.76;57.27
6942;BME280;3510;43.200;27.920;2023-08-06T07:32:36;99600.38;;;32.73;57.02
6942;BME280;3510;43.200;27.920;2023-08-06T07:35:03;99593.88;;;32.90;56.59
6942;BME280;3510;43.200;27.920;2023-08-06T07:37:33;99645.00;;;32.61;57.57
6942;BME280;3510;43.200;27.920;2023-08-06T07:40:01;99642.34;;;32.98;57.14
6942;BME280;3510;43.200;27.920;2023-08-06T07:42:27;99638.50;;;33.12;56.77
6942;BME280;3510;43.200;27.920;2023-08-06T07:44:57;99625.00;;;32.97;56.97
6942;BME280;3510;43.200;27.920;2023-08-06T07:47:24;99608.56;;;32.92;56.71
6942;BME280;3510;43.200;27.920;2023-08-06T07:49:52;99654.53;;;33.29;56.77
6942;BME280;3510;43.200;27.920;2023-08-06T07:52:18;99627.22;;;32.77;56.57
6942;BME280;3510;43.200;27.920;2023-08-06T07:54:47;99660.50;;;33.34;55.57
6942;BME280;3510;43.200;27.920;2023-08-06T07:57:14;99629.50;;;33.22;55.60
6942;BME280;3510;43.200;27.920;2023-08-06T07:59:41;99656.06;;;33.05;56.73
6942;BME280;3510;43.200;27.920;2023-08-06T08:02:09;99649.25;;;32.65;57.31
6942;BME280;3510;43.200;27.920;2023-08-06T08:04:36;99615.31;;;32.67;57.20
6942;BME280;3510;43.200;27.920;2023-08-06T08:07:03;99658.25;;;33.20;56.82
6942;BME280;3510;43.200;27.920;2023-08-06T08:09:30;99646.47;;;33.38;56.10
6942;BME280;3510;43.200;27.920;2023-08-06T08:12:00;99657.59;;;33.45;55.96
6942;BME280;3510;43.200;27.920;2023-08-06T08:14:28;99652.00;;;33.26;55.89
6942;BME280;3510;43.200;27.920;2023-08-06T08:17:00;99665.59;;;33.70;54.67
6942;BME280;3510;43.200;27.920;2023-08-06T08:19:29;99668.72;;;33.52;54.11
6942;BME280;3510;43.200;27.920;2023-08-06T08:21:56;99667.25;;;33.41;54.41
6942;BME280;3510;43.200;27.920;2023-08-06T08:24:23;99659.59;;;33.04;54.48
6942;BME280;3510;43.200;27.920;2023-08-06T08:26:50;99664.13;;;32.96;55.73
6942;BME280;3510;43.200;27.920;2023-08-06T08:29:18;99661.56;;;32.94;55.64
6942;BME280;3510;43.200;27.920;2023-08-06T08:31:45;99669.25;;;32.65;56.41
6942;BME280;3510;43.200;27.920;2023-08-06T08:34:14;99656.16;;;32.66;56.75
6942;BME280;3510;43.200;27.920;2023-08-06T08:36:43;99651.34;;;33.19;55.76
6942;BME280;3510;43.200;27.920;2023-08-06T08:39:12;99641.56;;;33.26;55.18
6942;BME280;3510;43.200;27.920;2023-08-06T08:41:39;99630.94;;;33.03;56.04
6942;BME280;3510;43.200;27.920;2023-08-06T08:44:08;99626.81;;;33.25;55.67
6942;BME280;3510;43.200;27.920;2023-08-06T08:46:36;99621.22;;;33.08;56.41
6942;BME280;3510;43.200;27.920;2023-08-06T08:49:18;99616.41;;;32.94;57.02
6942;BME280;3510;43.200;27.920;2023-08-06T08:51:49;99605.84;;;32.98;56.42
6942;BME280;3510;43.200;27.920;2023-08-06T08:54:17;99620.13;;;33.47;56.14
6942;BME280;3510;43.200;27.920;2023-08-06T08:56:58;99620.19;;;33.44;55.70
6942;BME280;3510;43.200;27.920;2023-08-06T08:59:39;99626.63;;;33.64;54.64
6942;BME280;3510;43.200;27.920;2023-08-06T09:02:06;99626.63;;;33.02;55.79
6942;BME280;3510;43.200;27.920;2023-08-06T09:04:36;99622.84;;;33.43;55.06
6942;BME280;3510;43.200;27.920;2023-08-06T09:07:05;99626.94;;;33.81;54.63
6942;BME280;3510;43.200;27.920;2023-08-06T09:09:34;99620.03;;;33.80;54.70
6942;BME280;3510;43.200;27.920;2023-08-06T09:12:14;99622.59;;;33.82;55.10
6942;BME280;3510;43.200;27.920;2023-08-06T09:14:42;99620.09;;;33.79;55.00
6942;BME280;3510;43.200;27.920;2023-08-06T09:17:10;99587.66;;;33.58;54.40
6942;BME280;3510;43.200;27.920;2023-08-06T09:19:37;99616.25;;;33.90;54.91
6942;BME280;3510;43.200;27.920;2023-08-06T09:22:05;99596.41;;;33.55;54.54
6942;BME280;3510;43.200;27.920;2023-08-06T09:24:38;99605.63;;;33.67;55.01
6942;BME280;3510;43.200;27.920;2023-08-06T09:27:06;99600.28;;;33.40;55.42
6942;BME280;3510;43.200;27.920;2023-08-06T09:29:40;99555.31;;;33.32;54.45
6942;BME280;3510;43.200;27.920;2023-08-06T09:32:07;99591.25;;;33.54;54.00
6942;BME280;3510;43.200;27.920;2023-08-06T09:34:33;99592.22;;;33.79;53.77
6942;BME280;3510;43.200;27.920;2023-08-06T09:37:00;99556.75;;;33.72;53.41
6942;BME280;3510;43.200;27.920;2023-08-06T09:39:29;99569.34;;;33.87;53.74
6942;BME280;3510;43.200;27.920;2023-08-06T09:41:59;99568.84;;;33.46;54.02
6942;BME280;3510;43.200;27.920;2023-08-06T09:44:27;99582.78;;;33.75;54.22
6942;BME280;3510;43.200;27.920;2023-08-06T09:46:56;99594.75;;;34.10;53.79
6942;BME280;3510;43.200;27.920;2023-08-06T09:49:41;99582.13;;;33.37;54.95
6942;BME280;3510;43.200;27.920;2023-08-06T09:52:22;99576.03;;;33.68;54.57
6942;BME280;3510;43.200;27.920;2023-08-06T09:55:19;99584.47;;;33.76;54.15
6942;BME280;3510;43.200;27.920;2023-08-06T09:57:47;99586.06;;;33.21;55.16
6942;BME280;3510;43.200;27.920;2023-08-06T10:00:14;99582.34;;;33.61;55.11
6942;BME280;3510;43.200;27.920;2023-08-06T10:02:42;99579.53;;;33.67;54.75
6942;BME280;3510;43.200;27.920;2023-08-06T10:05:23;99575.13;;;33.39;54.61
6942;BME280;3510;43.200;27.920;2023-08-06T10:07:51;99571.38;;;33.50;54.74
6942;BME280;3510;43.200;27.920;2023-08-06T10:16:54;99564.59;;;33.72;54.82
6942;BME280;3510;43.200;27.920;2023-08-06T10:19:23;99535.72;;;33.77;54.48
6942;BME280;3510;43.200;27.920;2023-08-06T10:22:09;99532.44;;;33.98;54.38
6942;BME280;3510;43.200;27.920;2023-08-06T10:24:52;99545.88;;;33.58;55.31
6942;BME280;3510;43.200;27.920;2023-08-06T10:27:21;99492.88;;;33.56;54.54
6942;BME280;3510;43.200;27.920;2023-08-06T10:29:48;99527.28;;;33.68;53.60
6942;BME280;3510;43.200;27.920;2023-08-06T10:32:17;99548.50;;;33.58;54.35
6942;BME280;3510;43.200;27.920;2023-08-06T10:34:58;99538.84;;;33.88;53.39
6942;BME280;3510;43.200;27.920;2023-08-06T10:37:34;99519.56;;;33.92;53.07
6942;BME280;3510;43.200;27.920;2023-08-06T10:40:02;99525.19;;;33.80;53.51
6942;BME280;3510;43.200;27.920;2023-08-06T10:42:30;99511.59;;;33.40;54.56
6942;BME280;3510;43.200;27.920;2023-08-06T10:45:14;99533.94;;;33.51;54.71
6942;BME280;3510;43.200;27.920;2023-08-06T10:57:12;99525.72;;;33.04;56.51
6942;BME280;3510;43.200;27.920;2023-08-06T10:59:39;99461.91;;;32.86;56.41
6942;BME280;3510;43.200;27.920;2023-08-06T11:02:06;99519.63;;;33.62;56.04
6942;BME280;3510;43.200;27.920;2023-08-06T11:04:33;99502.88;;;33.41;56.35
6942;BME280;3510;43.200;27.920;2023-08-06T11:07:00;99506.75;;;33.84;55.30
6942;BME280;3510;43.200;27.920;2023-08-06T11:09:27;99508.59;;;33.82;55.01
6942;BME280;3510;43.200;27.920;2023-08-06T11:12:09;99526.44;;;33.68;55.07
6942;BME280;3510;43.200;27.920;2023-08-06T11:21:26;99502.69;;;33.76;54.87
6942;BME280;3510;43.200;27.920;2023-08-06T11:23:55;99502.84;;;34.24;53.49
6942;BME280;3510;43.200;27.920;2023-08-06T11:26:36;99500.09;;;33.47;55.35
6942;BME280;3510;43.200;27.920;2023-08-06T11:29:05;99509.03;;;34.47;53.59
6942;BME280;3510;43.200;27.920;2023-08-06T11:31:32;99490.38;;;34.32;52.95
6942;BME280;3510;43.200;27.920;2023-08-06T11:33:59;99478.66;;;34.69;52.09
6942;BME280;3510;43.200;27.920;2023-08-06T11:36:34;99470.81;;;34.69;53.10
6942;BME280;3510;43.200;27.920;2023-08-06T11:39:01;99445.22;;;34.04;53.85
6942;BME280;3510;43.200;27.920;2023-08-06T11:41:28;99438.31;;;34.26;53.79
6942;BME280;3510;43.200;27.920;2023-08-06T11:44:10;99451.19;;;34.32;53.56
6942;BME280;3510;43.200;27.920;2023-08-06T11:46:54;99499.66;;;34.16;53.85
6942;BME280;3510;43.200;27.920;2023-08-06T11:49:40;99496.00;;;33.39;55.66
6942;BME280;3510;43.200;27.920;2023-08-06T11:52:15;99485.94;;;33.55;56.21
6942;BME280;3510;43.200;27.920;2023-08-06T11:54:44;99484.88;;;33.04;56.28
6942;BME280;3510;43.200;27.920;2023-08-06T11:57:11;99513.22;;;32.52;58.70
6942;BME280;3510;43.200;27.920;2023-08-06T11:59:38;99549.59;;;32.56;58.54
6942;BME280;3510;43.200;27.920;2023-08-06T12:02:21;99632.75;;;32.65;59.12
6942;BME280;3510;43.200;27.920;2023-08-06T12:05:01;99605.06;;;32.61;58.74
6942;BME280;3510;43.200;27.920;2023-08-06T12:07:32;99596.69;;;32.12;59.58
6942;BME280;3510;43.200;27.920;2023-08-06T12:10:13;99616.66;;;31.31;59.49
6942;BME280;3510;43.200;27.920;2023-08-06T12:12:40;99622.59;;;31.38;54.90
6942;BME280;3510;43.200;27.920;2023-08-06T12:15:08;99610.13;;;31.52;50.88
6942;BME280;3510;43.200;27.920;2023-08-06T12:17:35;99568.81;;;31.38;52.01
6942;BME280;3510;43.200;27.920;2023-08-06T12:20:16;99576.59;;;30.45;55.33
6942;BME280;3510;43.200;27.920;2023-08-06T12:25:54;99627.16;;;29.58;58.40
6942;BME280;3510;43.200;27.920;2023-08-06T12:28:21;99628.38;;;29.26;59.54
6942;BME280;3510;43.200;27.920;2023-08-06T12:30:47;99627.78;;;29.77;58.35
6942;BME280;3510;43.200;27.920;2023-08-06T12:33:14;99609.19;;;29.41;59.73
6942;BME280;3510;43.200;27.920;2023-08-06T12:35:41;99584.84;;;28.73;60.86
6942;BME280;3510;43.200;27.920;2023-08-06T12:38:21;99600.75;;;30.50;56.08
6942;BME280;3510;43.200;27.920;2023-08-06T12:43:58;99592.91;;;28.39;61.98
6942;BME280;3510;43.200;27.920;2023-08-06T12:46:24;99591.22;;;28.33;61.94
6942;BME280;3510;43.200;27.920;2023-08-06T12:48:51;99592.84;;;28.48;61.67
6942;BME280;3510;43.200;27.920;2023-08-06T12:51:18;99599.66;;;28.58;61.10
6942;BME280;3510;43.200;27.920;2023-08-06T12:53:58;99596.03;;;28.78;61.37
6942;BME280;3510;43.200;27.920;2023-08-06T12:56:24;99597.88;;;29.48;59.21
6942;BME280;3510;43.200;27.920;2023-08-06T12:58:51;99607.66;;;29.23;59.17
6942;BME280;3510;43.200;27.920;2023-08-06T13:01:19;99611.78;;;30.07;56.85
6942;BME280;3510;43.200;27.920;2023-08-06T13:03:46;99621.16;;;30.70;55.45
6942;BME280;3510;43.200;27.920;2023-08-06T13:06:12;99611.09;;;31.03;53.91
6942;BME280;3510;43.200;27.920;2023-08-06T13:08:39;99609.56;;;30.42;54.63
6942;BME280;3510;43.200;27.920;2023-08-06T13:11:05;99613.22;;;30.30;55.28
6942;BME280;3510;43.200;27.920;2023-08-06T13:13:32;99624.41;;;30.86;54.24
6942;BME280;3510;43.200;27.920;2023-08-06T13:15:58;99638.91;;;31.44;52.65
6942;BME280;3510;43.200;27.920;2023-08-06T13:18:26;99653.59;;;31.90;51.37
6942;BME280;3510;43.200;27.920;2023-08-06T13:20:54;99654.34;;;31.95;51.38
6942;BME280;3510;43.200;27.920;2023-08-06T13:23:21;99651.97;;;30.95;53.28
6942;BME280;3510;43.200;27.920;2023-08-06T13:26:01;99662.00;;;30.62;54.46
6942;BME280;3510;43.200;27.920;2023-08-06T13:28:41;99651.25;;;30.31;56.10
6942;BME280;3510;43.200;27.920;2023-08-06T13:31:22;99621.81;;;30.32;55.36
6942;BME280;3510;43.200;27.920;2023-08-06T13:33:49;99621.97;;;30.23;56.29
6942;BME280;3510;43.200;27.920;2023-08-06T13:36:17;99600.75;;;29.92;56.06
6942;BME280;3510;43.200;27.920;2023-08-06T13:38:43;99583.63;;;29.81;55.28
6942;BME280;3510;43.200;27.920;2023-08-06T13:41:10;99538.09;;;30.14;54.63
6942;BME280;3510;43.200;27.920;2023-08-06T13:43:37;99590.25;;;30.01;55.00
6942;BME280;3510;43.200;27.920;2023-08-06T13:46:04;99577.31;;;29.96;54.50
6942;BME280;3510;43.200;27.920;2023-08-06T13:48:30;99560.56;;;30.20;52.95
6942;BME280;3510;43.200;27.920;2023-08-06T13:50:59;99563.44;;;29.99;53.69
6942;BME280;3510;43.200;27.920;2023-08-06T13:53:25;99587.41;;;30.18;53.58
6942;BME280;3510;43.200;27.920;2023-08-06T13:55:55;99573.06;;;29.92;53.38
6942;BME280;3510;43.200;27.920;2023-08-06T13:58:26;99578.06;;;30.07;53.00
6942;BME280;3510;43.200;27.920;2023-08-06T14:00:53;99578.81;;;30.12;52.54
6942;BME280;3510;43.200;27.920;2023-08-06T14:03:20;99570.84;;;30.26;52.20
6942;BME280;3510;43.200;27.920;2023-08-06T14:05:47;99558.56;;;30.36;51.66
6942;BME280;3510;43.200;27.920;2023-08-06T14:08:16;99545.75;;;30.78;49.52
6942;BME280;3510;43.200;27.920;2023-08-06T14:10:43;99550.91;;;31.23;48.29
6942;BME280;3510;43.200;27.920;2023-08-06T14:13:10;99573.97;;;31.80;47.52
6942;BME280;3510;43.200;27.920;2023-08-06T14:15:37;99562.53;;;33.22;44.45
6942;BME280;3510;43.200;27.920;2023-08-06T14:18:05;99582.91;;;33.10;44.92
6942;BME280;3510;43.200;27.920;2023-08-06T14:20:33;99575.25;;;33.04;45.73
6942;BME280;3510;43.200;27.920;2023-08-06T14:23:00;99574.91;;;34.05;42.62
6942;BME280;3510;43.200;27.920;2023-08-06T14:25:28;99556.59;;;33.77;42.96
6942;BME280;3510;43.200;27.920;2023-08-06T14:27:55;99570.09;;;34.44;41.83
6942;BME280;3510;43.200;27.920;2023-08-06T14:30:21;99551.84;;;34.17;41.84
6942;BME280;3510;43.200;27.920;2023-08-06T14:32:48;99558.47;;;34.54;40.80
6942;BME280;3510;43.200;27.920;2023-08-06T14:35:15;99552.06;;;35.11;39.51
6942;BME280;3510;43.200;27.920;2023-08-06T14:37:41;99541.25;;;35.68;38.21
6942;BME280;3510;43.200;27.920;2023-08-06T14:40:10;99513.91;;;35.53;37.90
6942;BME280;3510;43.200;27.920;2023-08-06T14:42:39;99536.56;;;35.76;37.65
6942;BME280;3510;43.200;27.920;2023-08-06T14:45:06;99546.78;;;36.04;37.05
6942;BME280;3510;43.200;27.920;2023-08-06T14:47:33;99526.28;;;35.48;37.62
6942;BME280;3510;43.200;27.920;2023-08-06T14:49:59;99517.31;;;35.08;37.63
6942;BME280;3510;43.200;27.920;2023-08-06T14:52:26;99538.78;;;36.49;36.17
6942;BME280;3510;43.200;27.920;2023-08-06T14:54:54;99529.44;;;36.01;35.62